createdAt,value
2022-11-10T00:00:48.226Z,12.71
2022-11-10T00:03:35.174Z,12.73
2022-11-10T00:06:21.526Z,12.63
2022-11-10T00:09:07.500Z,12.74
2022-11-10T00:11:53.640Z,12.66
2022-11-10T00:14:58.285Z,12.69
2022-11-10T00:17:44.500Z,12.65
2022-11-10T00:20:30.339Z,12.71
2022-11-10T00:23:15.959Z,12.78
2022-11-10T00:26:02.377Z,12.60
2022-11-10T00:28:50.497Z,12.63
2022-11-10T00:31:40.313Z,12.68
2022-11-10T00:34:26.296Z,12.62
2022-11-10T00:37:12.349Z,12.64
2022-11-10T00:39:57.912Z,12.60
2022-11-10T00:42:43.763Z,12.62
2022-11-10T00:45:29.747Z,12.65
2022-11-10T00:48:15.386Z,12.69
2022-11-10T00:51:01.367Z,12.62
2022-11-10T00:53:47.192Z,12.65
2022-11-10T00:56:33.139Z,12.39
2022-11-10T00:59:19.279Z,12.42
2022-11-10T01:02:05.306Z,12.61
2022-11-10T01:04:50.899Z,12.51
2022-11-10T01:07:36.518Z,12.60
2022-11-10T01:10:22.385Z,12.54
2022-11-10T01:13:08.089Z,12.51
2022-11-10T01:15:54.053Z,12.52
2022-11-10T01:18:40.103Z,12.54
2022-11-10T01:21:26.950Z,12.61
2022-11-10T01:24:12.714Z,12.61
2022-11-10T01:26:58.639Z,12.64
2022-11-10T01:29:44.472Z,12.50
2022-11-10T01:32:30.619Z,12.43
2022-11-10T01:35:16.173Z,12.36
2022-11-10T01:38:01.994Z,12.35
2022-11-10T01:40:47.848Z,12.28
2022-11-10T01:43:33.867Z,12.31
2022-11-10T01:46:19.807Z,12.24
2022-11-10T01:49:05.865Z,12.27
2022-11-10T01:51:58.795Z,12.07
2022-11-10T01:54:47.277Z,12.11
2022-11-10T01:57:33.818Z,12.19
2022-11-10T02:00:20.130Z,12.33
2022-11-10T02:03:11.276Z,12.40
2022-11-10T02:05:57.028Z,12.43
2022-11-10T02:08:43.528Z,12.28
2022-11-10T02:11:30.400Z,12.11
2022-11-10T02:14:16.749Z,12.02
2022-11-10T02:17:02.776Z,12.04
2022-11-10T02:19:48.581Z,12.07
2022-11-10T02:22:34.545Z,12.13
2022-11-10T02:25:22.227Z,12.07
2022-11-10T02:28:08.069Z,12.04
2022-11-10T02:30:54.467Z,11.97
2022-11-10T02:33:40.327Z,11.92
2022-11-10T02:36:26.099Z,11.86
2022-11-10T02:39:11.721Z,11.73
2022-11-10T02:41:57.315Z,11.86
2022-11-10T02:44:43.083Z,11.83
2022-11-10T02:47:29.065Z,11.81
2022-11-10T02:50:15.346Z,11.83
2022-11-10T02:53:01.398Z,11.93
2022-11-10T02:55:47.275Z,11.88
2022-11-10T02:58:33.465Z,11.78
2022-11-10T03:01:19.422Z,11.92
2022-11-10T03:04:05.901Z,11.81
2022-11-10T03:06:51.820Z,11.78
2022-11-10T03:09:37.827Z,11.70
2022-11-10T03:12:23.511Z,11.61
2022-11-10T03:15:09.683Z,11.58
2022-11-10T03:17:56.049Z,11.49
2022-11-10T03:20:42.072Z,11.39
2022-11-10T03:23:27.891Z,11.53
2022-11-10T03:26:14.382Z,11.61
2022-11-10T03:29:00.627Z,11.34
2022-11-10T03:31:46.630Z,11.41
2022-11-10T03:34:32.666Z,11.43
2022-11-10T03:37:18.480Z,11.33
2022-11-10T03:40:04.243Z,11.36
2022-11-10T03:42:49.931Z,11.23
2022-11-10T03:45:36.050Z,10.97
2022-11-10T03:48:21.624Z,10.93
2022-11-10T03:51:07.793Z,11.14
2022-11-10T03:53:53.572Z,11.27
2022-11-10T03:56:39.683Z,11.21
2022-11-10T03:59:25.443Z,11.26
2022-11-10T04:02:12.232Z,11.31
2022-11-10T04:05:16.593Z,11.30
2022-11-10T04:08:20.866Z,11.33
2022-11-10T04:11:06.870Z,11.36
2022-11-10T04:14:10.966Z,11.32
2022-11-10T04:16:57.254Z,11.19
2022-11-10T04:19:42.915Z,11.28
2022-11-10T04:22:47.413Z,11.17
2022-11-10T04:25:53.115Z,11.24
2022-11-10T04:28:39.655Z,11.38
2022-11-10T04:31:28.105Z,11.22
2022-11-10T04:34:15.415Z,11.20
2022-11-10T04:37:01.400Z,11.29
2022-11-10T04:39:47.595Z,11.32
2022-11-10T04:42:33.222Z,11.34
2022-11-10T04:45:19.052Z,11.26
2022-11-10T04:48:05.136Z,11.12
2022-11-10T04:50:51.415Z,11.05
2022-11-10T04:53:37.651Z,11.02
2022-11-10T04:56:24.952Z,11.08
2022-11-10T04:59:10.742Z,10.97
2022-11-10T05:01:56.428Z,10.90
2022-11-10T05:04:42.138Z,10.91
2022-11-10T05:07:27.770Z,11.09
2022-11-10T05:10:14.990Z,10.93
2022-11-10T05:13:01.234Z,10.87
2022-11-10T05:15:46.963Z,10.74
2022-11-10T05:18:32.706Z,10.62
2022-11-10T05:21:18.244Z,10.61
2022-11-10T05:24:04.467Z,10.55
2022-11-10T05:26:50.112Z,10.71
2022-11-10T05:29:35.759Z,10.60
2022-11-10T05:32:21.433Z,10.56
2022-11-10T05:35:07.419Z,10.63
2022-11-10T05:37:53.244Z,10.61
2022-11-10T05:40:38.812Z,10.63
2022-11-10T05:43:25.111Z,10.62
2022-11-10T05:46:11.437Z,10.62
2022-11-10T05:48:57.173Z,10.62
2022-11-10T05:51:42.932Z,10.63
2022-11-10T05:54:29.317Z,10.70
2022-11-10T05:57:14.894Z,10.68
2022-11-10T06:00:00.932Z,10.83
2022-11-10T06:02:46.733Z,10.66
2022-11-10T06:05:34.979Z,10.58
2022-11-10T06:08:21.018Z,10.42
2022-11-10T06:11:06.622Z,10.52
2022-11-10T06:13:52.459Z,10.61
2022-11-10T06:16:38.239Z,10.46
2022-11-10T06:19:24.076Z,10.30
2022-11-10T06:22:10.078Z,10.39
2022-11-10T06:24:56.029Z,10.16
2022-11-10T06:27:44.971Z,9.97
2022-11-10T06:30:32.304Z,9.79
2022-11-10T06:33:18.052Z,9.91
2022-11-10T06:36:03.987Z,10.07
2022-11-10T06:38:49.917Z,10.17
2022-11-10T06:41:35.838Z,10.04
2022-11-10T06:44:21.469Z,10.15
2022-11-10T06:47:07.557Z,10.03
2022-11-10T06:49:53.454Z,9.99
2022-11-10T06:52:39.186Z,9.93
2022-11-10T06:55:25.727Z,10.01
2022-11-10T06:58:12.474Z,10.20
2022-11-10T07:01:01.809Z,10.26
2022-11-10T07:04:13.128Z,10.29
2022-11-10T07:06:54.248Z,10.22
2022-11-10T07:09:39.969Z,10.30
2022-11-10T07:12:25.989Z,10.19
2022-11-10T07:15:11.971Z,10.38
2022-11-10T07:17:57.985Z,10.38
2022-11-10T07:20:43.975Z,10.28
2022-11-10T07:23:29.701Z,10.49
2022-11-10T07:26:15.572Z,10.43
2022-11-10T07:29:01.394Z,10.32
2022-11-10T07:31:47.452Z,10.21
2022-11-10T07:34:33.002Z,10.23
2022-11-10T07:37:18.926Z,10.29
2022-11-10T07:40:04.937Z,10.14
2022-11-10T07:42:50.892Z,10.16
2022-11-10T07:45:36.734Z,10.33
2022-11-10T07:48:22.667Z,10.44
2022-11-10T07:51:08.714Z,10.57
2022-11-10T07:53:54.415Z,10.53
2022-11-10T07:56:42.339Z,10.78
2022-11-10T07:59:27.986Z,10.68
2022-11-10T08:02:13.788Z,10.68
2022-11-10T08:04:59.583Z,10.56
2022-11-10T08:07:45.775Z,10.61
2022-11-10T08:10:32.503Z,10.63
2022-11-10T08:13:18.418Z,10.67
2022-11-10T08:16:04.472Z,10.82
2022-11-10T08:18:50.256Z,10.83
2022-11-10T08:21:36.086Z,10.85
2022-11-10T08:24:22.346Z,10.98
2022-11-10T08:27:08.248Z,11.05
2022-11-10T08:29:54.384Z,11.07
2022-11-10T08:32:40.463Z,11.18
2022-11-10T08:35:28.451Z,11.45
2022-11-10T08:38:24.576Z,11.63
2022-11-10T08:41:10.571Z,11.61
2022-11-10T08:43:56.514Z,11.62
2022-11-10T08:46:44.383Z,11.68
2022-11-10T08:49:30.384Z,11.84
2022-11-10T08:52:16.024Z,11.80
2022-11-10T08:55:02.376Z,11.74
2022-11-10T08:57:48.604Z,11.68
2022-11-10T09:00:35.587Z,11.79
2022-11-10T09:03:24.600Z,11.83
2022-11-10T09:06:10.916Z,11.78
2022-11-10T09:08:57.507Z,11.72
2022-11-10T09:11:43.261Z,11.53
2022-11-10T09:14:29.276Z,11.63
2022-11-10T09:17:14.922Z,11.69
2022-11-10T09:20:00.720Z,11.60
2022-11-10T09:22:46.849Z,11.42
2022-11-10T09:25:32.460Z,11.26
2022-11-10T09:28:19.385Z,11.08
2022-11-10T09:31:04.827Z,11.09
2022-11-10T09:33:50.691Z,11.21
2022-11-10T09:36:37.407Z,11.38
2022-11-10T09:39:23.501Z,11.09
2022-11-10T09:42:36.937Z,11.03
2022-11-10T09:45:29.154Z,10.83
2022-11-10T09:48:25.597Z,10.97
2022-11-10T09:51:32.011Z,11.17
2022-11-10T09:54:46.312Z,11.29
2022-11-10T09:57:32.693Z,11.42
2022-11-10T10:00:19.246Z,11.49
2022-11-10T10:03:06.267Z,11.55
2022-11-10T10:06:11.187Z,11.69
2022-11-10T10:09:09.397Z,11.97
2022-11-10T10:12:04.505Z,12.10
2022-11-10T10:14:59.156Z,12.00
2022-11-10T10:18:00.169Z,12.14
2022-11-10T10:20:48.782Z,12.06
2022-11-10T10:26:52.770Z,11.99
2022-11-10T10:29:46.892Z,11.97
2022-11-10T10:32:32.833Z,11.74
2022-11-10T10:35:18.960Z,11.77
2022-11-10T10:38:05.810Z,11.71
2022-11-10T10:40:52.281Z,11.72
2022-11-10T10:43:40.769Z,11.86
2022-11-10T10:46:32.822Z,11.66
2022-11-10T10:49:30.106Z,11.76
2022-11-10T10:52:17.820Z,12.02
2022-11-10T10:55:07.799Z,12.27
2022-11-10T10:57:57.286Z,12.20
2022-11-10T11:00:47.554Z,12.26
2022-11-10T11:03:43.509Z,12.44
2022-11-10T11:06:33.665Z,12.28
2022-11-10T11:09:27.370Z,12.51
2022-11-10T11:12:28.486Z,12.52
2022-11-10T11:15:29.246Z,12.46
2022-11-10T11:18:17.656Z,12.17
2022-11-10T11:21:22.553Z,12.45
2022-11-10T11:24:23.864Z,12.56
2022-11-10T11:27:28.091Z,12.38
2022-11-10T11:30:19.333Z,12.43
2022-11-10T11:33:22.242Z,12.66
2022-11-10T11:36:30.602Z,12.63
2022-11-10T11:39:41.236Z,12.54
2022-11-10T11:42:37.962Z,12.60
2022-11-10T11:45:34.657Z,12.48
2022-11-10T11:48:39.090Z,12.68
2022-11-10T11:51:45.934Z,12.76
2022-11-10T11:54:56.779Z,12.67
2022-11-10T11:58:17.091Z,12.80
2022-11-10T12:01:06.206Z,13.06
2022-11-10T12:04:18.190Z,13.10
2022-11-10T12:07:24.065Z,13.05
2022-11-10T12:10:23.979Z,12.96
2022-11-10T12:13:13.208Z,13.01
2022-11-10T12:16:12.102Z,13.24
2022-11-10T12:19:06.720Z,13.37
2022-11-10T12:21:57.946Z,13.49
2022-11-10T12:24:46.755Z,13.57
2022-11-10T12:27:40.809Z,13.79
2022-11-10T12:30:26.951Z,13.82
2022-11-10T12:33:35.402Z,13.91
2022-11-10T12:36:22.527Z,13.85
2022-11-10T12:39:18.066Z,13.65
2022-11-10T12:42:05.381Z,13.87
2022-11-10T12:45:19.215Z,13.88
2022-11-10T12:48:05.355Z,13.88
2022-11-10T12:50:58.301Z,14.07
2022-11-10T12:53:45.810Z,14.15
2022-11-10T12:56:39.826Z,14.08
2022-11-10T12:59:31.405Z,14.04
2022-11-10T13:02:24.932Z,14.19
2022-11-10T13:05:13.997Z,14.32
2022-11-10T13:08:16.719Z,14.42
2022-11-10T13:11:11.628Z,14.31
2022-11-10T13:14:00.880Z,14.47
2022-11-10T13:16:54.333Z,14.24
2022-11-10T13:19:40.248Z,14.20
2022-11-10T13:22:40.910Z,14.29
2022-11-10T13:25:36.459Z,14.34
2022-11-10T13:28:47.432Z,14.50
2022-11-10T13:31:33.495Z,14.68
2022-11-10T13:34:19.978Z,14.53
2022-11-10T13:37:33.878Z,14.54
2022-11-10T13:40:25.395Z,14.55
2022-11-10T13:43:19.913Z,14.35
2022-11-10T13:46:05.685Z,14.42
2022-11-10T13:49:15.699Z,14.41
2022-11-10T13:52:11.511Z,14.52
2022-11-10T13:55:03.177Z,14.44
2022-11-10T13:58:02.136Z,14.53
2022-11-10T14:01:16.339Z,14.39
2022-11-10T14:04:03.116Z,14.44
2022-11-10T14:06:51.326Z,14.56
2022-11-10T14:09:39.896Z,14.49
2022-11-10T14:12:33.348Z,14.38
2022-11-10T14:15:34.862Z,14.36
2022-11-10T14:18:23.769Z,14.34
2022-11-10T14:21:12.540Z,14.46
2022-11-10T14:24:12.484Z,14.44
2022-11-10T14:26:59.319Z,14.33
2022-11-10T14:29:45.077Z,14.37
2022-11-10T14:32:31.376Z,14.31
2022-11-10T14:35:21.263Z,14.35
2022-11-10T14:38:35.788Z,14.39
2022-11-10T14:41:22.590Z,14.37
2022-11-10T14:44:15.392Z,14.42
2022-11-10T14:47:27.468Z,14.44
2022-11-10T14:50:21.969Z,14.33
2022-11-10T14:53:15.066Z,14.35
2022-11-10T14:56:02.948Z,14.22
2022-11-10T14:58:49.898Z,14.13
2022-11-10T15:01:38.844Z,14.30
2022-11-10T15:04:31.857Z,14.17
2022-11-10T15:07:21.223Z,14.18
2022-11-10T15:10:15.050Z,14.06
2022-11-10T15:13:13.169Z,13.98
2022-11-10T15:16:25.580Z,13.91
2022-11-10T15:19:23.444Z,13.79
2022-11-10T15:22:22.415Z,13.79
2022-11-10T15:25:20.045Z,13.79
2022-11-10T15:28:27.039Z,13.76
2022-11-10T15:31:31.118Z,13.75
2022-11-10T15:34:43.687Z,13.73
2022-11-10T15:37:31.508Z,13.65
2022-11-10T15:40:48.948Z,13.71
2022-11-10T15:43:34.776Z,13.86
2022-11-10T15:46:22.943Z,13.75
2022-11-10T15:49:31.599Z,14.00
2022-11-10T15:52:20.218Z,13.86
2022-11-10T15:55:06.444Z,13.48
2022-11-10T15:57:52.560Z,13.22
2022-11-10T16:00:38.907Z,13.28
2022-11-10T16:03:25.581Z,13.41
2022-11-10T16:06:15.614Z,13.38
2022-11-10T16:09:01.751Z,13.50
2022-11-10T16:11:47.620Z,13.72
2022-11-10T16:14:33.652Z,13.66
2022-11-10T16:17:19.467Z,13.82
2022-11-10T16:20:13.822Z,13.83
2022-11-10T16:22:59.728Z,13.49
2022-11-10T16:25:46.908Z,13.61
2022-11-10T16:28:32.956Z,13.50
2022-11-10T16:31:20.216Z,13.62
2022-11-10T16:34:06.098Z,13.64
2022-11-10T16:36:52.052Z,13.69
2022-11-10T16:39:38.094Z,13.76
2022-11-10T16:42:24.138Z,13.41
2022-11-10T16:45:23.693Z,13.52
2022-11-10T16:48:09.663Z,13.54
2022-11-10T16:50:57.806Z,13.61
2022-11-10T16:53:44.536Z,13.51
2022-11-10T16:56:30.624Z,13.56
2022-11-10T16:59:17.159Z,13.49
2022-11-10T17:02:03.338Z,13.65
2022-11-10T17:04:49.247Z,13.66
2022-11-10T17:07:35.958Z,13.64
2022-11-10T17:10:21.860Z,13.72
2022-11-10T17:13:10.975Z,13.66
2022-11-10T17:16:08.058Z,13.75
2022-11-10T17:18:54.525Z,13.78
2022-11-10T17:21:40.454Z,13.84
2022-11-10T17:24:26.805Z,13.84
2022-11-10T17:27:12.548Z,13.76
2022-11-10T17:29:58.554Z,13.91
2022-11-10T17:33:04.066Z,13.87
2022-11-10T17:35:52.236Z,13.93
2022-11-10T17:38:38.621Z,13.88
2022-11-10T17:41:24.604Z,13.84
2022-11-10T17:44:14.432Z,13.92
2022-11-10T17:47:00.306Z,13.90
2022-11-10T17:49:46.127Z,13.75
2022-11-10T17:52:31.980Z,13.77
2022-11-10T17:55:19.238Z,13.51
2022-11-10T17:58:05.458Z,13.43
2022-11-10T18:00:51.335Z,13.43
2022-11-10T18:03:37.385Z,13.35
2022-11-10T18:06:23.277Z,13.31
2022-11-10T18:09:09.218Z,13.48
2022-11-10T18:11:54.938Z,13.51
2022-11-10T18:14:40.678Z,13.46
2022-11-10T18:17:26.448Z,13.20
2022-11-10T18:20:14.213Z,13.20
2022-11-10T18:23:00.256Z,13.21
2022-11-10T18:25:45.936Z,13.40
2022-11-10T18:28:31.627Z,13.39
2022-11-10T18:31:18.910Z,13.49
2022-11-10T18:34:04.719Z,13.56
2022-11-10T18:36:52.284Z,13.60
2022-11-10T18:39:38.325Z,13.51
2022-11-10T18:42:24.695Z,13.38
2022-11-10T18:45:11.160Z,13.26
2022-11-10T18:48:02.202Z,13.15
2022-11-10T18:50:48.834Z,13.15
2022-11-10T18:53:38.282Z,12.97
2022-11-10T18:56:25.830Z,12.95
2022-11-10T18:59:11.898Z,13.02
2022-11-10T19:01:57.953Z,13.02
2022-11-10T19:04:43.846Z,13.10
2022-11-10T19:07:30.322Z,12.80
2022-11-10T19:10:16.406Z,12.71
2022-11-10T19:13:02.269Z,13.10
2022-11-10T19:15:48.011Z,13.17
2022-11-10T19:18:40.862Z,13.07
2022-11-10T19:21:27.674Z,13.18
2022-11-10T19:24:25.834Z,13.08
2022-11-10T19:27:14.178Z,12.99
2022-11-10T19:29:59.683Z,12.94
2022-11-10T19:32:45.489Z,12.85
2022-11-10T19:35:32.987Z,12.88
2022-11-10T19:38:18.819Z,12.86
2022-11-10T19:41:10.207Z,12.72
2022-11-10T19:43:55.985Z,12.74
2022-11-10T19:46:41.808Z,12.73
2022-11-10T19:49:27.576Z,12.77
2022-11-10T19:52:13.621Z,12.89
2022-11-10T19:54:59.297Z,12.93
2022-11-10T19:57:45.128Z,12.95
2022-11-10T20:00:31.197Z,12.45
2022-11-10T20:03:16.713Z,12.45
2022-11-10T20:06:08.172Z,12.36
2022-11-10T20:08:55.051Z,12.51
2022-11-10T20:11:40.660Z,12.51
2022-11-10T20:14:27.226Z,12.42
2022-11-10T20:17:12.870Z,12.53
2022-11-10T20:19:58.442Z,12.54
2022-11-10T20:22:44.444Z,12.51
2022-11-10T20:25:30.773Z,12.60
2022-11-10T20:28:16.703Z,12.51
2022-11-10T20:31:04.018Z,12.50
2022-11-10T20:33:51.363Z,12.48
2022-11-10T20:36:37.402Z,12.47
2022-11-10T20:39:23.135Z,12.48
2022-11-10T20:42:10.445Z,12.38
2022-11-10T20:44:56.255Z,12.45
2022-11-10T20:47:42.293Z,12.38
2022-11-10T20:50:28.040Z,12.49
2022-11-10T20:53:14.252Z,12.51
2022-11-10T20:56:01.909Z,12.50
2022-11-10T20:58:48.991Z,12.51
2022-11-10T21:01:34.880Z,12.50
2022-11-10T21:04:20.934Z,12.58
2022-11-10T21:07:06.954Z,12.68
2022-11-10T21:09:52.783Z,12.73
2022-11-10T21:12:50.516Z,12.62
2022-11-10T21:15:38.427Z,12.51
2022-11-10T21:18:30.235Z,12.49
2022-11-10T21:21:21.801Z,12.55
2022-11-10T21:24:08.586Z,12.31
2022-11-10T21:26:55.234Z,12.39
2022-11-10T21:29:42.491Z,12.40
2022-11-10T21:32:28.658Z,12.28
2022-11-10T21:35:14.375Z,12.23
2022-11-10T21:38:00.413Z,12.35
2022-11-10T21:40:46.372Z,12.45
2022-11-10T21:43:32.159Z,12.36
2022-11-10T21:46:18.353Z,12.46
2022-11-10T21:49:07.699Z,12.34
2022-11-10T21:51:54.084Z,12.54
2022-11-10T21:54:39.818Z,12.54
2022-11-10T21:57:26.090Z,12.49
2022-11-10T22:00:13.159Z,12.52
2022-11-10T22:02:59.930Z,12.56
2022-11-10T22:05:45.553Z,12.65
2022-11-10T22:08:31.642Z,12.51
2022-11-10T22:11:38.575Z,12.53
2022-11-10T22:14:43.101Z,12.53
2022-11-10T22:17:47.305Z,12.59
2022-11-10T22:20:33.313Z,12.39
2022-11-10T22:23:18.941Z,12.42
2022-11-10T22:26:04.881Z,12.28
2022-11-10T22:28:50.635Z,12.15
2022-11-10T22:31:36.663Z,12.19
2022-11-10T22:34:22.669Z,12.36
2022-11-10T22:37:08.521Z,12.35
2022-11-10T22:40:12.665Z,12.33
2022-11-10T22:43:17.088Z,12.32
2022-11-10T22:46:02.938Z,12.13
2022-11-10T22:48:48.668Z,12.10
2022-11-10T22:51:35.092Z,12.11
2022-11-10T22:54:23.118Z,12.02
2022-11-10T22:57:09.215Z,11.99
2022-11-10T22:59:55.109Z,11.96
2022-11-10T23:02:40.759Z,12.08
2022-11-10T23:05:26.809Z,11.94
2022-11-10T23:08:12.412Z,11.87
2022-11-10T23:11:12.465Z,12.03
2022-11-10T23:13:58.552Z,12.10
2022-11-10T23:16:44.290Z,12.02
2022-11-10T23:19:30.265Z,12.00
2022-11-10T23:22:15.998Z,11.96
2022-11-10T23:25:01.582Z,11.96
2022-11-10T23:27:47.645Z,11.99
2022-11-10T23:30:33.286Z,12.16
2022-11-10T23:33:18.904Z,12.24
2022-11-10T23:36:06.023Z,12.11
2022-11-10T23:38:52.172Z,11.99
2022-11-10T23:41:38.377Z,11.92
2022-11-10T23:44:24.091Z,12.00
2022-11-10T23:47:10.007Z,11.93
2022-11-10T23:49:56.060Z,11.74
2022-11-10T23:52:42.067Z,11.77
2022-11-10T23:55:27.809Z,11.79
2022-11-10T23:58:13.610Z,11.73
